Time;durP1;ratioP1;P1;durP2;ratioP2;P2;SDS_P1;SDS_P2;PMS_P1;PMS_P2;Temp;Humidity;BMP_temperature;BMP_pressure;BME280_temperature;BME280_humidity;BME280_pressure;Samples;Min_cycle;Max_cycle;Signal;HPM_P1;HPM_P2
2023/12/01 00:02:16;;;;;;;7.25;5.28;;;2.00;99.90;;;;;;5080443;28;22157;-73
2023/12/01 00:04:43;;;;;;;5.45;4.95;;;2.00;99.90;;;;;;5084727;28;20200;-71
2023/12/01 00:07:09;;;;;;;9.48;5.68;;;2.00;99.90;;;;;;5083816;28;20211;-73
2023/12/01 00:09:37;;;;;;;7.20;5.40;;;2.00;99.90;;;;;;5081549;28;20211;-73
2023/12/01 00:12:05;;;;;;;9.30;5.10;;;2.00;99.90;;;;;;5085369;28;20227;-72
2023/12/01 00:14:31;;;;;;;7.20;4.90;;;2.00;99.90;;;;;;5080707;28;20602;-72
2023/12/01 04:33:21;;;;;;;5.50;4.60;;;1.30;99.90;;;;;;5029775;28;20228;-74
2023/12/01 04:35:48;;;;;;;7.10;5.97;;;1.30;99.90;;;;;;5031729;28;20209;-73
2023/12/01 04:38:15;;;;;;;6.35;5.03;;;1.30;99.90;;;;;;5032028;28;20210;-73
2023/12/01 04:40:41;;;;;;;5.05;4.40;;;1.30;99.90;;;;;;5032096;28;20225;-74
2023/12/01 04:43:08;;;;;;;7.15;5.05;;;1.30;99.90;;;;;;5032142;28;20658;-73
2023/12/01 04:45:35;;;;;;;5.97;4.95;;;1.30;99.90;;;;;;5032205;28;20206;-73
2023/12/01 04:48:02;;;;;;;5.07;4.57;;;1.30;99.90;;;;;;5031499;28;20210;-74
2023/12/01 04:50:31;;;;;;;8.07;4.65;;;1.30;99.90;;;;;;5031521;28;20226;-73
2023/12/01 04:53:00;;;;;;;8.80;5.40;;;1.30;99.90;;;;;;5030254;28;20220;-74
2023/12/01 04:55:28;;;;;;;6.95;4.90;;;1.30;99.90;;;;;;5030454;28;20208;-74
2023/12/01 04:57:56;;;;;;;6.20;5.20;;;1.30;99.90;;;;;;5029877;28;20224;-74
2023/12/01 05:00:25;;;;;;;6.18;5.57;;;1.30;99.90;;;;;;5031244;28;20658;-73
2023/12/01 05:02:54;;;;;;;5.70;4.05;;;1.30;99.90;;;;;;5030859;28;20234;-73
2023/12/01 05:05:22;;;;;;;7.25;4.72;;;1.40;99.90;;;;;;5031301;28;20624;-74
2023/12/01 05:07:52;;;;;;;6.32;5.50;;;1.40;99.90;;;;;;5029147;28;20224;-74
2023/12/01 05:10:19;;;;;;;5.15;4.35;;;1.30;99.90;;;;;;5029074;28;20218;-73
2023/12/01 05:12:49;;;;;;;4.80;4.28;;;1.30;99.90;;;;;;5031940;28;20528;-74
2023/12/01 05:15:16;;;;;;;5.70;4.28;;;1.30;99.90;;;;;;5030959;28;20681;-74
2023/12/01 05:17:44;;;;;;;6.70;5.32;;;1.30;99.90;;;;;;5030838;28;20517;-73
2023/12/01 05:20:15;;;;;;;6.60;5.45;;;1.30;99.90;;;;;;5030676;28;20664;-73
2023/12/01 05:22:43;;;;;;;6.00;5.15;;;1.30;99.90;;;;;;5031132;28;20248;-73
2023/12/01 05:25:13;;;;;;;5.47;4.60;;;1.30;99.90;;;;;;5030566;28;20246;-72
2023/12/01 05:27:41;;;;;;;7.20;5.78;;;1.30;99.90;;;;;;5029429;28;20202;-72
2023/12/01 05:30:12;;;;;;;5.15;4.38;;;1.30;99.90;;;;;;5030440;28;20720;-72
2023/12/01 05:32:39;;;;;;;4.90;4.10;;;1.30;99.90;;;;;;5023283;28;20213;-72
2023/12/01 05:35:10;;;;;;;4.53;3.97;;;1.30;99.90;;;;;;5030394;28;20212;-72
2023/12/01 05:37:37;;;;;;;5.75;4.50;;;1.30;99.90;;;;;;5030316;28;20206;-72
2023/12/01 05:40:06;;;;;;;5.60;4.40;;;1.30;99.90;;;;;;5028707;28;20244;-71
2023/12/01 05:42:34;;;;;;;4.90;4.50;;;1.30;99.90;;;;;;5027353;28;20225;-72
2023/12/01 05:45:00;;;;;;;5.72;4.00;;;1.30;99.90;;;;;;5028842;28;20240;-72
2023/12/01 05:47:27;;;;;;;4.32;3.95;;;1.30;99.90;;;;;;5017883;28;20201;-72
2023/12/01 05:49:54;;;;;;;6.32;4.10;;;1.30;99.90;;;;;;5030610;28;20225;-72
2023/12/01 05:52:20;;;;;;;6.15;4.40;;;1.30;99.90;;;;;;5026627;28;20368;-73
2023/12/01 05:54:48;;;;;;;3.97;3.50;;;1.30;99.90;;;;;;5020608;28;20202;-72
2023/12/01 05:57:15;;;;;;;5.32;4.60;;;1.30;99.90;;;;;;5023179;28;20206;-73
2023/12/01 05:59:44;;;;;;;3.97;3.67;;;1.30;99.90;;;;;;5030887;28;20202;-73
2023/12/01 06:02:11;;;;;;;6.05;4.10;;;1.30;99.90;;;;;;5030437;28;20308;-73
2023/12/01 06:04:38;;;;;;;5.65;4.63;;;1.30;99.90;;;;;;5030893;28;20233;-72
2023/12/01 06:07:07;;;;;;;6.18;4.20;;;1.30;99.90;;;;;;5022815;28;20202;-72
2023/12/01 06:09:35;;;;;;;4.50;3.97;;;1.30;99.90;;;;;;5030710;28;20208;-72
2023/12/01 06:12:01;;;;;;;3.40;2.85;;;1.30;99.90;;;;;;5023256;28;20275;-73
2023/12/01 06:14:28;;;;;;;4.00;3.70;;;1.30;99.90;;;;;;5030739;28;20205;-72
2023/12/01 06:16:56;;;;;;;5.70;4.60;;;1.30;99.90;;;;;;5029927;28;20229;-73
2023/12/01 06:19:24;;;;;;;8.02;4.35;;;1.30;99.90;;;;;;5030828;28;20302;-72
2023/12/01 06:21:51;;;;;;;5.68;4.25;;;1.30;99.90;;;;;;5016160;28;20397;-72
2023/12/01 06:24:18;;;;;;;4.22;3.83;;;1.30;99.90;;;;;;5030781;28;20209;-73
2023/12/01 06:26:45;;;;;;;4.30;3.90;;;1.30;99.90;;;;;;5029958;28;20578;-72
2023/12/01 06:29:12;;;;;;;4.40;3.75;;;1.30;99.90;;;;;;5016471;28;20636;-72
2023/12/01 06:31:38;;;;;;;3.60;3.17;;;1.30;99.90;;;;;;5023351;28;20225;-73
2023/12/01 06:34:06;;;;;;;5.95;3.95;;;1.30;99.90;;;;;;5021635;28;20212;-73
2023/12/01 06:36:33;;;;;;;4.70;4.30;;;1.30;99.90;;;;;;5019953;28;20203;-72
2023/12/01 06:39:00;;;;;;;3.90;3.47;;;1.30;99.90;;;;;;5015434;28;20202;-72
2023/12/01 06:41:26;;;;;;;4.47;3.80;;;1.30;99.90;;;;;;5019112;28;20575;-72
2023/12/01 06:43:53;;;;;;;4.68;3.88;;;1.30;99.90;;;;;;5028094;28;20209;-72
2023/12/01 06:46:20;;;;;;;5.40;4.63;;;1.20;99.90;;;;;;5019940;28;20217;-72
2023/12/01 06:48:47;;;;;;;4.55;3.95;;;1.30;99.90;;;;;;5022929;28;20206;-72
2023/12/01 06:51:15;;;;;;;4.30;3.90;;;1.30;99.90;;;;;;5034161;28;20225;-72
2023/12/01 06:53:42;;;;;;;4.65;4.25;;;1.30;99.90;;;;;;5027715;28;20202;-73
2023/12/01 06:56:09;;;;;;;3.72;3.42;;;1.30;99.90;;;;;;5032429;28;20206;-72
2023/12/01 06:58:36;;;;;;;3.80;3.45;;;1.30;99.90;;;;;;5033842;28;20212;-72
2023/12/01 07:01:03;;;;;;;4.40;3.90;;;1.30;99.90;;;;;;5020688;28;20222;-72
2023/12/01 07:03:30;;;;;;;3.97;3.67;;;1.30;99.90;;;;;;5034326;28;20665;-72
2023/12/01 07:05:57;;;;;;;3.90;3.50;;;1.30;99.90;;;;;;5033518;28;20238;-72
2023/12/01 07:08:25;;;;;;;4.57;4.18;;;1.30;99.90;;;;;;5026987;28;20213;-72
2023/12/01 07:10:52;;;;;;;4.18;3.60;;;1.30;99.90;;;;;;5027131;28;20221;-72
2023/12/01 07:13:19;;;;;;;6.50;3.67;;;1.30;99.90;;;;;;5024454;28;20226;-73
2023/12/01 07:15:45;;;;;;;5.18;4.00;;;1.30;99.90;;;;;;5030485;28;20592;-72
2023/12/01 07:18:12;;;;;;;3.97;3.67;;;1.30;99.90;;;;;;5033396;28;20641;-72
2023/12/01 07:20:39;;;;;;;4.50;4.10;;;1.30;99.90;;;;;;5033638;28;20217;-72
2023/12/01 07:23:06;;;;;;;5.63;4.35;;;1.40;99.90;;;;;;5033526;28;20206;-72
2023/12/01 07:25:34;;;;;;;5.50;4.07;;;1.40;99.90;;;;;;5033528;28;20205;-72
2023/12/01 07:28:03;;;;;;;5.03;3.95;;;1.40;99.90;;;;;;5026747;28;20210;-72
2023/12/01 07:30:30;;;;;;;3.95;3.00;;;1.40;99.90;;;;;;5027501;28;20598;-73
2023/12/01 07:32:58;;;;;;;4.50;4.05;;;1.40;99.90;;;;;;5033352;28;20218;-72
2023/12/01 07:35:25;;;;;;;3.80;3.50;;;1.40;99.90;;;;;;5023643;28;20210;-72
2023/12/01 07:37:54;;;;;;;5.10;3.00;;;1.40;99.90;;;;;;5026085;28;20208;-72
2023/12/01 07:40:21;;;;;;;6.75;3.92;;;1.40;99.90;;;;;;5032683;28;20202;-72
2023/12/01 07:42:50;;;;;;;3.45;3.15;;;1.50;99.90;;;;;;5026272;28;20214;-72
2023/12/01 07:45:18;;;;;;;3.83;3.53;;;1.50;99.90;;;;;;5025806;28;20233;-72
2023/12/01 07:47:45;;;;;;;5.32;4.03;;;1.50;99.90;;;;;;5027199;28;20212;-71
2023/12/01 07:50:14;;;;;;;4.03;3.40;;;1.50;99.90;;;;;;5028626;28;20201;-73
2023/12/01 07:52:41;;;;;;;4.75;3.58;;;1.50;99.90;;;;;;5028074;28;20592;-72
2023/12/01 07:55:09;;;;;;;3.88;3.55;;;1.50;99.90;;;;;;5028389;28;20300;-72
2023/12/01 07:57:36;;;;;;;4.53;4.13;;;1.50;99.90;;;;;;5028749;28;20205;-73
2023/12/01 08:00:14;;;;;;;5.20;3.50;;;1.50;99.90;;;;;;5030494;28;20213;-72
2023/12/01 08:02:41;;;;;;;3.72;3.38;;;1.60;99.90;;;;;;5030569;28;20271;-72
2023/12/01 08:05:13;;;;;;;5.65;4.22;;;1.50;99.90;;;;;;5030585;28;20681;-72
2023/12/01 08:07:41;;;;;;;4.75;3.80;;;1.50;99.90;;;;;;5030464;28;20206;-72
2023/12/01 08:10:09;;;;;;;3.95;3.45;;;1.50;99.90;;;;;;5030591;28;20219;-71
2023/12/01 08:12:36;;;;;;;4.05;3.63;;;1.50;99.90;;;;;;5030269;28;20225;-72
2023/12/01 08:15:03;;;;;;;7.35;4.05;;;1.50;99.90;;;;;;5029840;28;20202;-72
2023/12/01 08:17:31;;;;;;;5.47;3.63;;;1.60;99.90;;;;;;5030092;28;20217;-71
2023/12/01 08:19:58;;;;;;;4.38;3.95;;;1.60;99.90;;;;;;5030189;28;20217;-73
2023/12/01 08:22:25;;;;;;;4.80;4.28;;;1.60;99.90;;;;;;5029893;28;20777;-73
2023/12/01 08:24:52;;;;;;;5.45;3.63;;;1.60;99.90;;;;;;5026370;28;20309;-72
2023/12/01 08:27:19;;;;;;;4.70;3.78;;;1.60;99.90;;;;;;5028610;28;20288;-72
2023/12/01 08:29:46;;;;;;;5.80;3.53;;;1.60;99.90;;;;;;5029406;28;20206;-72
2023/12/01 08:32:13;;;;;;;4.03;3.30;;;1.60;99.90;;;;;;5029499;28;20232;-73
2023/12/01 08:34:42;;;;;;;3.42;3.10;;;1.60;99.90;;;;;;5029991;28;20688;-72
2023/12/01 08:37:09;;;;;;;3.65;3.33;;;1.60;99.90;;;;;;5029311;28;20218;-73
2023/12/01 08:39:36;;;;;;;3.90;3.60;;;1.60;99.90;;;;;;5029537;28;20288;-73
2023/12/01 08:42:02;;;;;;;4.40;3.55;;;1.60;99.90;;;;;;5027714;28;20228;-73
2023/12/01 08:44:29;;;;;;;4.75;3.10;;;1.60;99.90;;;;;;5029067;28;20202;-73
2023/12/01 08:46:57;;;;;;;3.42;3.08;;;1.60;99.90;;;;;;5028563;28;20216;-73
2023/12/01 08:49:23;;;;;;;7.57;4.88;;;1.60;99.90;;;;;;5029265;28;20221;-72
2023/12/01 08:51:55;;;;;;;4.57;3.08;;;1.70;99.90;;;;;;5029278;28;20243;-73
2023/12/01 08:54:21;;;;;;;5.05;3.80;;;1.70;99.90;;;;;;5029598;28;20206;-73
2023/12/01 08:56:49;;;;;;;5.20;3.90;;;1.80;99.90;;;;;;5028885;28;20272;-72
2023/12/01 08:59:16;;;;;;;5.32;4.03;;;1.80;99.90;;;;;;5029058;28;20212;-73
2023/12/01 09:01:43;;;;;;;7.63;4.70;;;1.80;99.90;;;;;;5028621;28;20221;-73
2023/12/01 09:04:09;;;;;;;3.50;2.83;;;1.90;99.90;;;;;;5028931;28;20212;-73
2023/12/01 09:06:38;;;;;;;4.53;3.70;;;1.90;99.90;;;;;;5028666;28;20214;-73
2023/12/01 09:09:06;;;;;;;8.77;5.25;;;1.90;99.90;;;;;;5028805;28;20263;-73
2023/12/01 09:11:33;;;;;;;4.22;2.97;;;2.00;99.90;;;;;;5028315;28;20690;-73
2023/12/01 09:13:59;;;;;;;5.68;3.63;;;2.00;99.90;;;;;;5029145;28;20201;-74
2023/12/01 09:16:26;;;;;;;3.53;3.15;;;2.00;99.90;;;;;;5027328;28;20906;-73
2023/12/01 09:18:53;;;;;;;5.63;3.45;;;2.00;99.90;;;;;;5028837;28;20206;-73
2023/12/01 09:21:20;;;;;;;7.03;4.32;;;2.00;99.90;;;;;;5028959;28;20706;-73
2023/12/01 09:23:47;;;;;;;5.40;3.47;;;2.10;99.90;;;;;;5028821;28;20198;-73
2023/12/01 09:26:18;;;;;;;5.78;4.13;;;2.10;99.90;;;;;;5027055;28;20212;-73
2023/12/01 09:28:45;;;;;;;4.95;3.00;;;2.20;99.90;;;;;;5028383;28;20198;-73
2023/12/01 09:31:13;;;;;;;4.70;3.78;;;2.20;99.90;;;;;;5028201;28;20222;-73
2023/12/01 09:33:40;;;;;;;4.82;3.95;;;2.20;99.90;;;;;;5028642;28;20220;-72
2023/12/01 09:36:07;;;;;;;4.30;3.60;;;2.20;99.90;;;;;;5028403;28;20205;-73
2023/12/01 09:38:35;;;;;;;6.60;4.75;;;2.20;99.90;;;;;;5027346;28;20206;-73
2023/12/01 09:41:02;;;;;;;6.07;3.95;;;2.20;99.90;;;;;;5028313;28;20617;-73
2023/12/01 09:43:32;;;;;;;5.40;4.35;;;2.20;99.90;;;;;;5028574;28;20209;-72
2023/12/01 09:45:59;;;;;;;4.57;4.03;;;2.20;99.90;;;;;;5027802;28;20214;-72
2023/12/01 09:48:26;;;;;;;4.88;3.50;;;2.20;99.90;;;;;;5027777;28;20691;-73
2023/12/01 09:50:54;;;;;;;4.78;4.00;;;2.20;99.90;;;;;;5028065;28;20229;-73
2023/12/01 09:53:21;;;;;;;4.10;3.63;;;2.10;99.90;;;;;;5028563;28;20228;-73
2023/12/01 09:55:49;;;;;;;4.10;3.63;;;2.10;99.90;;;;;;5027980;28;20210;-73
2023/12/01 09:58:17;;;;;;;4.22;3.75;;;2.20;99.90;;;;;;5028274;28;20264;-73
2023/12/01 10:00:48;;;;;;;6.45;4.45;;;2.20;99.90;;;;;;5026866;28;20657;-73
2023/12/01 10:03:16;;;;;;;4.50;3.63;;;2.20;99.90;;;;;;5028936;28;20205;-73
2023/12/01 10:05:44;;;;;;;4.70;4.18;;;2.20;99.90;;;;;;5028516;28;20267;-73
2023/12/01 10:08:11;;;;;;;8.15;5.25;;;2.20;99.90;;;;;;5028392;28;20285;-73
2023/12/01 10:10:40;;;;;;;10.32;6.18;;;2.20;99.90;;;;;;5028381;28;20249;-73
2023/12/01 10:13:09;;;;;;;5.22;4.45;;;2.30;99.90;;;;;;5026651;28;20224;-73
2023/12/01 10:15:38;;;;;;;6.43;4.28;;;2.20;99.90;;;;;;5027820;28;20233;-73
2023/12/01 10:18:11;;;;;;;4.90;4.38;;;2.30;99.90;;;;;;5028108;28;20213;-72
2023/12/01 10:20:40;;;;;;;4.80;4.20;;;2.30;99.90;;;;;;5028987;28;20241;-73
2023/12/01 10:23:18;;;;;;;5.18;4.68;;;2.30;99.90;;;;;;5029471;28;20591;-73
2023/12/01 10:25:49;;;;;;;4.25;3.85;;;2.30;99.90;;;;;;5031507;28;20707;-73
2023/12/01 10:28:17;;;;;;;7.65;5.38;;;2.20;99.90;;;;;;5032267;28;20202;-72
2023/12/01 10:30:55;;;;;;;6.38;5.45;;;2.20;99.90;;;;;;5031634;28;20259;-72
2023/12/01 10:33:24;;;;;;;6.32;5.55;;;2.10;99.90;;;;;;5032872;28;20203;-73
2023/12/01 10:36:01;;;;;;;7.75;6.07;;;2.20;99.90;;;;;;5032350;28;20213;-73
2023/12/01 10:38:29;;;;;;;5.28;4.40;;;2.20;99.90;;;;;;5031653;28;20735;-73
2023/12/01 10:40:57;;;;;;;5.65;4.63;;;2.10;99.90;;;;;;5032448;28;22043;-73
2023/12/01 10:43:26;;;;;;;4.75;3.75;;;2.10;99.90;;;;;;5032285;28;20216;-72
2023/12/01 10:45:53;;;;;;;6.13;3.70;;;2.00;99.90;;;;;;5031981;28;20213;-72
2023/12/01 10:48:23;;;;;;;3.83;3.50;;;2.10;99.90;;;;;;5030996;28;20673;-73
2023/12/01 10:50:52;;;;;;;4.82;3.88;;;2.10;99.90;;;;;;5031174;28;20232;-73
2023/12/01 10:53:19;;;;;;;7.57;4.20;;;2.00;99.90;;;;;;5031614;28;20229;-73
2023/12/01 10:55:48;;;;;;;3.97;3.60;;;1.90;99.90;;;;;;5030898;28;20289;-73
2023/12/01 10:58:21;;;;;;;5.35;3.88;;;1.90;99.90;;;;;;5031402;28;20221;-73
2023/12/01 11:00:50;;;;;;;3.60;3.15;;;1.90;99.90;;;;;;5031616;28;20222;-73
2023/12/01 11:03:22;;;;;;;4.40;3.60;;;2.00;99.90;;;;;;5031514;28;20198;-73
2023/12/01 11:05:55;;;;;;;4.43;4.03;;;2.10;99.90;;;;;;5032202;28;20347;-73
2023/12/01 11:08:32;;;;;;;4.80;4.18;;;2.20;99.90;;;;;;5031129;28;20197;-72
2023/12/01 11:11:11;;;;;;;6.05;4.25;;;2.20;99.90;;;;;;5031161;28;20392;-72
2023/12/01 11:13:52;;;;;;;5.43;4.90;;;2.20;99.90;;;;;;5031076;28;20574;-72
2023/12/01 11:16:19;;;;;;;6.82;4.18;;;2.20;99.90;;;;;;5029076;28;20619;-72
2023/12/01 11:18:46;;;;;;;8.38;4.85;;;2.20;99.90;;;;;;5031471;28;20201;-72
2023/12/01 11:21:17;;;;;;;6.35;4.70;;;2.10;99.90;;;;;;5031684;28;20315;-72
2023/12/01 11:23:44;;;;;;;8.40;4.53;;;2.10;99.90;;;;;;5031174;28;20277;-73
2023/12/01 11:26:12;;;;;;;5.70;4.53;;;2.10;99.90;;;;;;5031597;28;20202;-73
2023/12/01 11:28:55;;;;;;;9.00;5.43;;;2.10;99.90;;;;;;5030876;28;20198;-73
2023/12/01 11:31:34;;;;;;;6.65;4.45;;;2.00;99.90;;;;;;5031245;28;20229;-73
2023/12/01 11:34:02;;;;;;;7.63;4.80;;;2.00;99.90;;;;;;5028179;28;20271;-73
2023/12/01 11:36:32;;;;;;;6.93;5.10;;;2.00;99.90;;;;;;5028459;28;20304;-73
2023/12/01 11:39:16;;;;;;;6.72;5.25;;;2.00;99.90;;;;;;5029631;28;20297;-73
2023/12/01 11:41:49;;;;;;;6.88;4.88;;;2.00;99.90;;;;;;5031033;28;20224;-73
2023/12/01 11:44:20;;;;;;;6.57;4.60;;;2.00;99.90;;;;;;5027606;28;20213;-73
2023/12/01 11:46:55;;;;;;;6.30;4.38;;;2.00;99.90;;;;;;5030296;28;20676;-73
2023/12/01 11:49:26;;;;;;;8.98;4.70;;;2.00;99.90;;;;;;5031369;28;20208;-73
2023/12/01 11:51:55;;;;;;;9.25;6.38;;;2.00;99.90;;;;;;5030778;28;20233;-73
2023/12/01 11:54:23;;;;;;;7.53;4.50;;;2.00;99.90;;;;;;5031057;28;20211;-73
2023/12/01 11:56:52;;;;;;;9.75;5.53;;;2.00;99.90;;;;;;5031010;28;20210;-75
2023/12/01 11:59:21;;;;;;;6.30;5.20;;;2.00;99.90;;;;;;5024691;28;20198;-73
2023/12/01 12:01:48;;;;;;;9.93;6.10;;;2.00;99.90;;;;;;5025235;28;20768;-73
2023/12/01 12:04:16;;;;;;;9.48;5.28;;;2.00;99.90;;;;;;5028783;28;20654;-73
2023/12/01 12:06:43;;;;;;;11.10;5.93;;;1.90;99.90;;;;;;5027567;28;20205;-73
2023/12/01 12:09:17;;;;;;;7.60;5.10;;;1.80;99.90;;;;;;5027001;28;20213;-73
2023/12/01 12:11:45;;;;;;;8.70;6.80;;;1.80;99.90;;;;;;5026578;28;20779;-73
2023/12/01 12:14:12;;;;;;;13.45;6.57;;;1.80;99.90;;;;;;5026874;28;20715;-74
2023/12/01 12:16:40;;;;;;;7.57;5.90;;;1.80;99.90;;;;;;5026252;28;20742;-73
2023/12/01 12:19:07;;;;;;;8.70;6.18;;;1.70;99.90;;;;;;5027606;28;20237;-73
2023/12/01 12:21:36;;;;;;;11.52;6.95;;;1.70;99.90;;;;;;5028044;28;20221;-73
2023/12/01 12:24:03;;;;;;;11.15;6.55;;;1.70;99.90;;;;;;5028536;28;20237;-73
2023/12/01 12:26:31;;;;;;;11.57;6.82;;;1.70;99.90;;;;;;5027315;28;20284;-72
2023/12/01 12:28:59;;;;;;;12.02;6.75;;;1.70;99.90;;;;;;5027629;28;20209;-73
2023/12/01 12:31:29;;;;;;;14.88;7.57;;;1.70;99.90;;;;;;5027400;28;20228;-72
2023/12/01 12:33:58;;;;;;;12.50;7.70;;;1.70;99.90;;;;;;5027895;28;20333;-73
2023/12/01 12:36:27;;;;;;;12.60;8.07;;;1.70;99.90;;;;;;5028315;28;20233;-72
2023/12/01 12:38:54;;;;;;;13.82;7.80;;;1.80;99.90;;;;;;5027510;28;20217;-72
2023/12/01 12:41:25;;;;;;;13.60;8.18;;;1.70;99.90;;;;;;5027832;28;20299;-72
2023/12/01 12:43:55;;;;;;;12.70;7.15;;;1.60;99.90;;;;;;5025515;28;20292;-72
2023/12/01 12:46:22;;;;;;;13.68;8.13;;;1.60;99.90;;;;;;5026940;28;20206;-72
2023/12/01 12:48:49;;;;;;;11.50;8.15;;;1.60;99.90;;;;;;5026966;28;20702;-72
2023/12/01 12:51:17;;;;;;;15.00;8.05;;;1.60;99.90;;;;;;5026782;28;20240;-72
2023/12/01 12:53:45;;;;;;;14.25;7.07;;;1.60;99.90;;;;;;5027103;28;20224;-72
2023/12/01 12:56:13;;;;;;;11.73;8.32;;;1.60;99.90;;;;;;5027396;28;20275;-75
2023/12/01 12:58:40;;;;;;;14.15;9.43;;;1.60;99.90;;;;;;5025157;28;20279;-73
2023/12/01 13:01:08;;;;;;;14.10;8.75;;;1.60;99.90;;;;;;5026080;28;20229;-73
2023/12/01 13:03:35;;;;;;;13.20;8.45;;;1.60;99.90;;;;;;5026722;28;20677;-71
2023/12/01 13:06:01;;;;;;;12.93;8.55;;;1.50;99.90;;;;;;5026152;28;20206;-73
2023/12/01 13:08:28;;;;;;;10.88;7.65;;;1.60;99.90;;;;;;5027459;28;20206;-73
2023/12/01 13:10:55;;;;;;;16.02;8.23;;;1.60;99.90;;;;;;5026731;28;20603;-73
2023/12/01 13:13:22;;;;;;;11.20;8.10;;;1.60;99.90;;;;;;5026043;28;20254;-73
2023/12/01 13:15:48;;;;;;;13.85;8.70;;;1.60;99.90;;;;;;5025389;28;20248;-72
2023/12/01 13:18:16;;;;;;;12.52;8.25;;;1.60;99.90;;;;;;5027359;28;20254;-72
2023/12/01 13:20:44;;;;;;;12.18;8.02;;;1.60;99.90;;;;;;5026214;28;20242;-73
2023/12/01 13:23:11;;;;;;;12.63;7.28;;;1.60;99.90;;;;;;5025731;28;20577;-72
2023/12/01 13:25:37;;;;;;;9.88;6.63;;;1.60;99.90;;;;;;5027468;28;20202;-73
2023/12/01 13:28:04;;;;;;;12.50;7.60;;;1.60;99.90;;;;;;5025491;28;20217;-72
2023/12/01 13:30:32;;;;;;;11.30;8.68;;;1.60;99.90;;;;;;5027277;28;20202;-73
2023/12/01 13:32:59;;;;;;;12.27;6.90;;;1.60;99.90;;;;;;5026721;28;21937;-73
2023/12/01 13:35:28;;;;;;;6.88;5.00;;;1.60;99.90;;;;;;5026785;28;20773;-73
2023/12/01 13:37:55;;;;;;;11.98;7.07;;;1.60;99.90;;;;;;5026258;28;20237;-73
2023/12/01 13:40:22;;;;;;;10.05;7.00;;;1.60;99.90;;;;;;5027014;28;20206;-73
2023/12/01 13:42:49;;;;;;;8.80;6.38;;;1.60;99.90;;;;;;5026602;28;20566;-75
2023/12/01 13:45:15;;;;;;;12.75;8.82;;;1.60;99.90;;;;;;5026922;28;20210;-73
2023/12/01 13:47:42;;;;;;;11.25;6.57;;;1.70;99.90;;;;;;5026413;28;20209;-75
2023/12/01 13:50:09;;;;;;;7.10;5.43;;;1.60;99.90;;;;;;5026654;28;20198;-73
2023/12/01 13:52:37;;;;;;;6.50;5.75;;;1.60;99.90;;;;;;5025713;28;20233;-73
2023/12/01 13:55:04;;;;;;;11.20;7.10;;;1.60;99.90;;;;;;5026004;28;20213;-72
2023/12/01 13:57:31;;;;;;;6.50;5.38;;;1.60;99.90;;;;;;5027226;28;20206;-73
2023/12/01 13:59:58;;;;;;;11.02;5.95;;;1.60;99.90;;;;;;5025975;28;20233;-73
2023/12/01 14:02:25;;;;;;;10.27;5.03;;;1.60;99.90;;;;;;5027268;28;20210;-72
2023/12/01 14:04:51;;;;;;;6.88;6.28;;;1.50;99.90;;;;;;5026151;28;20221;-73
2023/12/01 14:07:18;;;;;;;9.07;5.85;;;1.50;99.90;;;;;;5026181;28;20223;-72
2023/12/01 14:09:47;;;;;;;9.50;5.95;;;1.50;99.90;;;;;;5024324;28;20201;-72
2023/12/01 14:12:14;;;;;;;6.18;4.55;;;1.50;99.90;;;;;;5026865;28;20225;-72
2023/12/01 14:14:41;;;;;;;10.55;8.82;;;1.50;99.90;;;;;;5026386;28;20214;-73
2023/12/01 14:17:07;;;;;;;9.88;7.22;;;1.60;99.90;;;;;;5025595;28;20687;-72
2023/12/01 14:19:34;;;;;;;8.02;5.82;;;1.60;99.90;;;;;;5026577;28;20617;-72
2023/12/01 14:22:01;;;;;;;7.22;5.30;;;1.50;99.90;;;;;;5026124;28;20222;-71
2023/12/01 14:24:27;;;;;;;10.95;5.85;;;1.50;99.90;;;;;;5026137;28;20202;-72
2023/12/01 14:26:56;;;;;;;6.63;5.20;;;1.50;99.90;;;;;;5025451;28;20212;-72
2023/12/01 14:29:23;;;;;;;5.97;5.43;;;1.40;99.90;;;;;;5026525;28;20205;-72
2023/12/01 14:31:50;;;;;;;7.22;4.95;;;1.40;99.90;;;;;;5025928;28;20606;-70
2023/12/01 14:34:19;;;;;;;7.25;5.55;;;1.40;99.90;;;;;;5025641;28;20217;-71
2023/12/01 14:36:46;;;;;;;5.80;4.60;;;1.40;99.90;;;;;;5025430;28;20289;-71
2023/12/01 14:39:12;;;;;;;7.70;5.68;;;1.40;99.90;;;;;;5025728;28;20209;-72
2023/12/01 14:41:39;;;;;;;6.72;5.57;;;1.40;99.90;;;;;;5026181;28;20233;-72
2023/12/01 14:44:07;;;;;;;5.10;4.60;;;1.40;99.90;;;;;;5025037;28;20596;-71
2023/12/01 14:46:34;;;;;;;5.28;4.53;;;1.30;99.90;;;;;;5024066;28;20228;-72
2023/12/01 14:49:01;;;;;;;6.78;5.13;;;1.30;99.90;;;;;;5026216;28;20209;-72
2023/12/01 14:51:27;;;;;;;6.40;4.43;;;1.30;99.90;;;;;;5025565;28;20510;-72
2023/12/01 14:53:55;;;;;;;6.32;4.88;;;1.30;99.90;;;;;;5025913;28;20312;-72
2023/12/01 14:56:22;;;;;;;6.35;4.25;;;1.30;99.90;;;;;;5025537;28;20293;-72
2023/12/01 14:58:49;;;;;;;7.53;5.97;;;1.30;99.90;;;;;;5024739;28;20205;-73
2023/12/01 15:01:17;;;;;;;13.50;7.40;;;1.30;99.90;;;;;;5025436;28;20599;-72
2023/12/01 15:03:44;;;;;;;8.80;6.15;;;1.20;99.90;;;;;;5026115;28;20233;-73
2023/12/01 15:06:12;;;;;;;7.70;5.25;;;1.30;99.90;;;;;;5024523;28;20206;-73
2023/12/01 15:08:38;;;;;;;7.93;5.85;;;1.30;99.90;;;;;;5025903;28;20647;-72
2023/12/01 15:11:05;;;;;;;8.77;6.03;;;1.20;99.90;;;;;;5027485;28;20245;-72
2023/12/01 15:13:32;;;;;;;9.05;6.28;;;1.20;99.90;;;;;;5029475;28;20702;-71
2023/12/01 15:15:59;;;;;;;8.18;5.90;;;1.20;99.90;;;;;;5026712;28;20574;-72
2023/12/01 15:18:27;;;;;;;10.32;6.97;;;1.20;99.90;;;;;;5029580;28;20263;-71
2023/12/01 15:20:55;;;;;;;11.07;7.30;;;1.20;99.90;;;;;;5028675;28;20324;-73
2023/12/01 15:23:21;;;;;;;7.90;5.75;;;1.10;99.90;;;;;;5029367;28;20617;-73
2023/12/01 15:25:48;;;;;;;6.78;5.65;;;1.10;99.90;;;;;;5029431;28;20624;-74
2023/12/01 15:28:15;;;;;;;6.80;4.90;;;1.10;99.90;;;;;;5028462;28;20212;-75
2023/12/01 15:30:42;;;;;;;6.88;5.68;;;1.10;99.90;;;;;;5029630;28;20650;-71
2023/12/01 15:33:08;;;;;;;7.13;4.85;;;1.10;99.90;;;;;;5025625;28;20225;-71
2023/12/01 15:35:37;;;;;;;8.70;5.30;;;1.10;99.90;;;;;;5029415;28;20202;-71
2023/12/01 15:38:04;;;;;;;8.77;5.20;;;1.10;99.90;;;;;;5027959;28;20224;-71
2023/12/01 15:40:30;;;;;;;7.80;4.90;;;1.10;99.90;;;;;;5029248;28;20201;-72
2023/12/01 15:42:58;;;;;;;6.38;4.90;;;1.10;99.90;;;;;;5029178;28;20786;-72
2023/12/01 15:45:25;;;;;;;8.68;5.32;;;1.10;99.90;;;;;;5028635;28;20198;-72
2023/12/01 15:47:51;;;;;;;8.65;6.22;;;1.10;99.90;;;;;;5025774;28;20201;-72
2023/12/01 15:50:18;;;;;;;11.38;7.93;;;1.10;99.90;;;;;;5026584;28;20550;-73
2023/12/01 15:52:46;;;;;;;9.88;6.30;;;1.10;99.90;;;;;;5029178;28;20206;-74
2023/12/01 15:55:13;;;;;;;11.45;6.80;;;1.00;99.90;;;;;;5028519;28;20218;-74
2023/12/01 15:57:39;;;;;;;12.95;7.28;;;1.00;99.90;;;;;;5028608;28;20206;-73
2023/12/01 16:00:09;;;;;;;8.73;5.35;;;1.00;99.90;;;;;;5028473;28;20209;-73
2023/12/01 16:02:36;;;;;;;7.95;5.45;;;1.00;99.90;;;;;;5028987;28;20222;-74
2023/12/01 16:05:02;;;;;;;7.28;4.60;;;1.00;99.90;;;;;;5026014;28;20204;-73
2023/12/01 16:07:29;;;;;;;6.10;4.65;;;0.90;99.90;;;;;;5028419;28;20579;-73
2023/12/01 16:09:57;;;;;;;7.15;4.25;;;0.90;99.90;;;;;;5028599;28;20206;-74
2023/12/01 16:12:24;;;;;;;9.50;6.65;;;0.90;99.90;;;;;;5028657;28;20593;-72
2023/12/01 16:14:51;;;;;;;6.93;4.50;;;0.90;99.90;;;;;;5027982;28;20646;-74
2023/12/01 16:17:22;;;;;;;6.38;4.60;;;0.90;99.90;;;;;;5027736;28;20210;-73
2023/12/01 16:19:49;;;;;;;10.05;5.40;;;0.90;99.90;;;;;;5028399;28;20201;-73
2023/12/01 16:22:16;;;;;;;8.40;6.28;;;1.00;99.90;;;;;;5027640;28;20222;-73
2023/12/01 16:24:47;;;;;;;9.40;6.13;;;1.00;99.90;;;;;;5027969;28;20682;-73
2023/12/01 16:27:15;;;;;;;8.60;5.63;;;0.90;99.90;;;;;;5026492;28;20202;-72
2023/12/01 16:29:42;;;;;;;6.18;4.72;;;0.90;99.90;;;;;;5028189;28;20210;-72
2023/12/01 16:32:09;;;;;;;7.80;5.25;;;0.90;99.90;;;;;;5027199;28;20234;-73
2023/12/01 16:34:35;;;;;;;9.98;6.13;;;0.90;99.90;;;;;;5028239;28;20225;-72
2023/12/01 16:37:02;;;;;;;7.40;5.15;;;0.90;99.90;;;;;;5027142;28;20202;-72
2023/12/01 16:39:29;;;;;;;8.57;5.50;;;0.90;99.90;;;;;;5028256;28;20209;-72
2023/12/01 16:41:55;;;;;;;9.45;5.13;;;0.90;99.90;;;;;;5027362;28;20248;-72
2023/12/01 16:44:23;;;;;;;7.18;4.32;;;0.90;99.90;;;;;;5027982;28;20206;-72
2023/12/01 16:46:50;;;;;;;7.57;5.47;;;0.90;99.90;;;;;;5026485;28;20212;-75
2023/12/01 16:49:17;;;;;;;9.60;6.20;;;0.90;99.90;;;;;;5024312;28;20220;-74
2023/12/01 16:51:44;;;;;;;6.93;5.13;;;0.90;99.90;;;;;;5027483;28;20229;-73
2023/12/01 16:54:11;;;;;;;10.55;5.55;;;0.90;99.90;;;;;;5025512;28;20225;-73
2023/12/01 16:56:37;;;;;;;7.15;5.00;;;0.90;99.90;;;;;;5027384;28;20575;-73
2023/12/01 16:59:04;;;;;;;8.40;5.38;;;0.80;99.90;;;;;;5027404;28;20504;-73
2023/12/01 17:01:32;;;;;;;6.63;4.88;;;0.90;99.90;;;;;;5026357;28;20364;-73
2023/12/01 17:03:59;;;;;;;6.32;5.50;;;0.80;99.90;;;;;;5026705;28;20238;-73
2023/12/01 17:06:26;;;;;;;8.63;5.72;;;0.80;99.90;;;;;;5024647;28;20214;-73
2023/12/01 17:08:53;;;;;;;6.63;5.30;;;0.80;99.90;;;;;;5026188;28;20217;-73
2023/12/01 17:11:21;;;;;;;10.30;6.90;;;0.80;99.90;;;;;;5026225;28;22855;-73
2023/12/01 17:13:48;;;;;;;8.07;5.20;;;0.80;99.90;;;;;;5026383;28;20213;-73
2023/12/01 17:16:15;;;;;;;6.65;4.40;;;0.80;99.90;;;;;;5024840;28;20209;-73